Time;durP1;ratioP1;P1;durP2;ratioP2;P2;SDS_P1;SDS_P2;PMS_P1;PMS_P2;Temp;Humidity;BMP_temperature;BMP_pressure;BME280_temperature;BME280_humidity;BME280_pressure;Samples;Min_cycle;Max_cycle;Signal;HPM_P1;HPM_P2
2022/06/16 00:02:01;;;;;;;2.22;1.50;;;;;;;27.62;41.71;97127.94;5115582;28;20034;-26
2022/06/16 00:04:27;;;;;;;4.30;1.70;;;;;;;27.63;41.80;97135.03;5115917;27;20029;-26
2022/06/16 00:06:55;;;;;;;2.80;1.92;;;;;;;27.69;41.62;97127.38;5134115;27;20015;-25
2022/06/16 00:09:23;;;;;;;3.42;2.05;;;;;;;27.65;41.40;97132.47;5116804;27;20034;-26
2022/06/16 00:11:49;;;;;;;2.50;1.98;;;;;;;27.69;41.83;97138.53;5138210;27;20367;-25
2022/06/16 00:14:15;;;;;;;4.13;1.80;;;;;;;27.73;42.02;97141.75;5137739;27;20062;-25
2022/06/16 00:16:40;;;;;;;4.32;1.95;;;;;;;27.69;42.03;97130.16;5137915;27;20030;-25
2022/06/16 00:19:06;;;;;;;2.35;1.67;;;;;;;27.62;42.17;97114.03;5137807;27;20029;-25
2022/06/16 00:21:31;;;;;;;2.42;1.60;;;;;;;27.64;42.21;97128.94;5137809;27;20027;-26
2022/06/16 00:24:28;;;;;;;1.58;1.48;;;;;;;27.64;41.90;97139.34;5137821;27;20034;-26
2022/06/16 00:26:56;;;;;;;1.80;1.55;;;;;;;27.67;42.04;97127.91;5137629;27;20043;-25
2022/06/16 00:29:23;;;;;;;3.97;1.77;;;;;;;27.66;41.97;97128.41;5120000;27;20027;-25
2022/06/16 00:31:49;;;;;;;4.05;1.85;;;;;;;27.58;42.47;97125.44;5137609;27;20023;-26
2022/06/16 00:34:14;;;;;;;4.32;1.75;;;;;;;27.59;42.25;97126.19;5137403;27;20107;-26
2022/06/16 00:36:40;;;;;;;2.50;1.60;;;;;;;27.63;42.35;97133.00;5119395;27;20355;-26
2022/06/16 00:39:06;;;;;;;1.50;1.40;;;;;;;27.68;42.13;97131.44;5137415;27;20021;-25
2022/06/16 00:41:33;;;;;;;2.58;1.58;;;;;;;27.69;42.61;97121.81;5137391;27;20023;-26
2022/06/16 00:44:35;;;;;;;3.50;1.75;;;;;;;27.64;42.18;97123.38;5137272;27;20061;-25
2022/06/16 00:47:00;;;;;;;3.47;1.90;;;;;;;27.65;41.96;97124.13;5105016;27;20040;-25
2022/06/16 00:49:27;;;;;;;2.10;1.73;;;;;;;27.62;42.19;97125.91;5114740;28;20167;-26
2022/06/16 00:52:02;;;;;;;1.92;1.58;;;;;;;27.67;42.42;97132.72;5098731;28;20345;-25
2022/06/16 00:55:00;;;;;;;2.08;1.40;;;;;;;27.65;42.08;97126.91;5116875;28;20023;-25
2022/06/16 00:57:31;;;;;;;2.67;1.63;;;;;;;27.67;42.51;97124.34;5081585;28;20467;-25
2022/06/16 00:59:58;;;;;;;2.37;1.63;;;;;;;27.67;42.77;97124.34;5116590;28;20031;-25
2022/06/16 01:02:26;;;;;;;2.92;1.50;;;;;;;27.68;42.98;97109.16;5116704;28;20024;-25
2022/06/16 01:04:52;;;;;;;1.92;1.73;;;;;;;27.73;42.29;97111.84;5116568;28;20015;-26
2022/06/16 01:07:32;;;;;;;2.67;1.50;;;;;;;27.63;42.67;97107.91;5116442;28;20102;-25
2022/06/16 01:09:59;;;;;;;3.38;1.80;;;;;;;27.63;42.56;97107.16;5098103;28;20454;-26
2022/06/16 01:16:08;;;;;;;1.92;1.40;;;;;;;27.60;42.63;97117.31;5033531;28;20517;-25
2022/06/16 01:18:53;;;;;;;2.47;1.77;;;;;;;27.69;42.30;97102.28;5033490;28;20033;-25
2022/06/16 01:21:37;;;;;;;3.58;1.60;;;;;;;27.65;42.17;97097.00;5032299;28;20414;-26
2022/06/16 01:24:40;;;;;;;2.53;1.70;;;;;;;27.60;42.14;97097.06;5033631;28;20533;-26
2022/06/16 01:27:24;;;;;;;2.33;1.60;;;;;;;27.65;42.20;97085.13;5033413;28;20126;-26
2022/06/16 01:30:02;;;;;;;3.28;1.90;;;;;;;27.68;42.28;97095.97;5016618;28;20083;-25
2022/06/16 01:32:48;;;;;;;3.55;1.60;;;;;;;27.65;42.03;97087.91;5033203;28;20045;-26
2022/06/16 01:35:37;;;;;;;3.28;1.80;;;;;;;27.66;41.96;97083.84;5033240;28;20061;-25
2022/06/16 01:38:31;;;;;;;3.33;1.67;;;;;;;27.63;42.56;97077.28;5033534;28;20026;-25
2022/06/16 01:41:23;;;;;;;2.22;1.75;;;;;;;27.61;42.08;97068.69;5033286;28;20045;-25
2022/06/16 01:44:29;;;;;;;3.65;2.38;;;;;;;27.60;42.30;97069.19;5033334;28;20033;-25
2022/06/16 01:46:57;;;;;;;4.20;2.10;;;;;;;27.65;41.78;97071.19;5024197;28;20200;-25
2022/06/16 01:49:29;;;;;;;3.00;2.03;;;;;;;27.65;42.05;97074.72;5032887;28;20029;-25
2022/06/16 01:52:00;;;;;;;2.42;1.80;;;;;;;27.65;41.60;97066.38;5047578;28;20036;-25
2022/06/16 01:54:56;;;;;;;3.08;1.85;;;;;;;27.65;41.78;97066.38;5115444;28;20027;-25
2022/06/16 01:57:29;;;;;;;3.20;1.90;;;;;;;27.66;41.85;97061.53;5112368;28;20042;-25
2022/06/16 02:00:00;;;;;;;3.88;1.92;;;;;;;27.62;41.47;97061.06;5097135;28;20027;-26
2022/06/16 02:02:30;;;;;;;4.93;1.85;;;;;;;27.53;42.03;97057.34;5096974;28;20030;-25
2022/06/16 02:05:20;;;;;;;3.53;1.83;;;;;;;27.60;41.75;97049.69;5115344;28;20097;-26
2022/06/16 02:07:59;;;;;;;4.00;1.92;;;;;;;27.62;41.77;97045.13;5115634;28;20104;-25
2022/06/16 02:10:34;;;;;;;2.75;2.03;;;;;;;27.56;41.36;97046.47;5115042;28;20035;-26
2022/06/16 02:13:04;;;;;;;2.17;1.58;;;;;;;27.60;41.46;97050.44;5114685;28;20059;-25
2022/06/16 02:15:39;;;;;;;2.63;1.80;;;;;;;27.62;41.51;97052.72;5115521;28;20357;-25
2022/06/16 02:18:09;;;;;;;4.18;1.90;;;;;;;27.59;41.41;97048.19;5115057;28;20031;-25
2022/06/16 02:21:06;;;;;;;2.63;1.90;;;;;;;27.53;41.10;97046.22;5115019;28;20019;-25
2022/06/16 02:23:32;;;;;;;3.20;1.70;;;;;;;27.52;41.55;97044.72;5056241;28;20045;-25
2022/06/16 02:25:58;;;;;;;4.50;1.85;;;;;;;27.54;41.14;97047.72;5114920;28;20023;-25
2022/06/16 02:28:25;;;;;;;2.25;1.77;;;;;;;27.53;41.36;97046.22;5114879;28;20038;-26
2022/06/16 02:30:53;;;;;;;3.22;2.10;;;;;;;27.49;41.48;97047.78;5114505;28;20020;-25
2022/06/16 02:33:27;;;;;;;1.80;1.65;;;;;;;27.51;41.10;97037.63;5114433;28;20051;-26
2022/06/16 02:36:02;;;;;;;2.47;2.00;;;;;;;27.49;41.07;97045.75;5114894;28;20399;-25
2022/06/16 02:38:42;;;;;;;2.55;1.80;;;;;;;27.52;41.27;97033.56;5114592;28;20019;-25
2022/06/16 02:41:26;;;;;;;2.90;2.03;;;;;;;27.52;41.22;97041.91;5114679;28;20050;-25
2022/06/16 02:44:29;;;;;;;2.72;1.92;;;;;;;27.45;41.04;97034.13;5114661;28;20019;-25
2022/06/16 02:47:44;;;;;;;3.30;2.22;;;;;;;27.42;41.07;97035.22;5114464;28;20023;-25
2022/06/16 02:50:21;;;;;;;4.18;1.90;;;;;;;27.47;40.71;97028.81;5114456;28;20023;-25
2022/06/16 02:52:57;;;;;;;2.78;1.88;;;;;;;27.46;41.13;97024.50;5095990;28;20023;-25
2022/06/16 02:55:30;;;;;;;3.90;1.90;;;;;;;27.47;40.68;97025.25;5114390;28;20054;-26
2022/06/16 02:57:57;;;;;;;;;;;;;;;27.40;41.31;97028.66;5114703;28;20072;-26
2022/06/16 03:00:31;;;;;;;3.53;2.00;;;;;;;27.39;41.13;97019.53;5114184;28;19991;-25
2022/06/16 03:02:56;;;;;;;1.88;1.67;;;;;;;27.37;41.20;97013.75;5114224;28;20027;-25
2022/06/16 03:05:22;;;;;;;2.75;1.70;;;;;;;27.39;40.58;97018.78;5114202;28;20035;-25
2022/06/16 03:07:48;;;;;;;2.83;1.90;;;;;;;27.39;40.36;97025.13;5114111;28;20027;-25
2022/06/16 03:10:50;;;;;;;2.00;1.90;;;;;;;27.42;40.72;97018.50;5114074;28;20015;-26
2022/06/16 03:13:04;;;;;;;2.85;1.83;;;;;;;27.38;40.69;97017.28;5113473;28;20052;-25
2022/06/16 03:15:30;;;;;;;3.22;1.83;;;;;;;27.37;40.98;97016.53;5114068;28;20023;-25
2022/06/16 03:17:55;;;;;;;2.40;1.70;;;;;;;27.39;40.37;97013.97;5113894;28;20019;-25
2022/06/16 03:20:21;;;;;;;2.28;2.05;;;;;;;27.37;40.83;97007.41;5113661;28;20472;-25
2022/06/16 03:22:48;;;;;;;3.33;1.80;;;;;;;27.40;40.74;97014.72;5113935;28;20043;-25
2022/06/16 03:25:13;;;;;;;2.53;1.98;;;;;;;27.36;40.76;97026.16;5113909;28;20569;-25
2022/06/16 03:27:39;;;;;;;2.47;2.17;;;;;;;27.34;40.30;97019.59;5113805;28;20118;-26
2022/06/16 03:30:04;;;;;;;2.10;1.80;;;;;;;27.34;40.40;97025.16;5113921;28;20091;-26
2022/06/16 03:32:31;;;;;;;6.03;2.00;;;;;;;27.33;40.82;97027.19;5113917;28;20486;-26
2022/06/16 03:34:56;;;;;;;2.90;1.80;;;;;;;27.33;40.83;97024.41;5113944;28;20153;-25
2022/06/16 03:37:23;;;;;;;2.38;2.05;;;;;;;27.31;40.72;97023.44;5113782;28;20493;-25
2022/06/16 03:39:49;;;;;;;2.88;1.80;;;;;;;27.33;40.24;97021.63;5113575;28;20028;-25
2022/06/16 03:42:15;;;;;;;3.75;1.92;;;;;;;27.35;40.26;97024.66;5113850;28;20024;-25
2022/06/16 03:44:41;;;;;;;3.47;2.15;;;;;;;27.31;40.46;97024.22;5115806;28;20030;-25
2022/06/16 03:47:06;;;;;;;2.75;1.83;;;;;;;27.29;40.29;97026.75;5118266;28;20024;-25
2022/06/16 03:49:31;;;;;;;3.05;1.83;;;;;;;27.29;40.66;97026.75;5117800;28;20097;-25
2022/06/16 03:51:57;;;;;;;2.40;1.80;;;;;;;27.28;40.55;97027.28;5099679;28;20024;-25
2022/06/16 03:54:23;;;;;;;4.13;2.40;;;;;;;27.29;40.25;97029.53;5117789;28;20030;-26
2022/06/16 03:56:48;;;;;;;5.05;2.00;;;;;;;27.26;40.39;97030.59;5117747;28;20120;-25
2022/06/16 03:59:14;;;;;;;5.45;2.20;;;;;;;27.24;40.43;97035.16;5117675;28;20024;-26
2022/06/16 04:01:39;;;;;;;2.15;1.83;;;;;;;27.26;40.74;97058.44;5099322;28;20038;-26
2022/06/16 04:04:05;;;;;;;2.95;1.92;;;;;;;27.25;40.15;97054.13;5117684;28;20536;-25
2022/06/16 04:06:35;;;;;;;5.35;1.90;;;;;;;27.25;40.62;97048.56;5117656;28;20023;-25
2022/06/16 04:09:03;;;;;;;3.10;1.95;;;;;;;27.25;40.30;97042.25;5117427;28;20099;-25
2022/06/16 04:11:30;;;;;;;2.25;1.70;;;;;;;27.25;40.27;97043.00;5117417;28;20023;-25
2022/06/16 04:14:10;;;;;;;2.42;2.00;;;;;;;27.28;40.23;97044.75;5117304;28;20048;-25
2022/06/16 04:16:42;;;;;;;3.20;2.00;;;;;;;27.21;40.83;97042.53;5117326;28;20111;-25
2022/06/16 04:19:09;;;;;;;2.92;2.30;;;;;;;27.24;40.75;97044.28;5099082;28;20019;-25
2022/06/16 04:21:43;;;;;;;3.58;2.10;;;;;;;27.20;40.71;97041.03;5117624;28;20380;-25
2022/06/16 04:24:09;;;;;;;4.32;1.90;;;;;;;27.24;40.46;97041.50;5117178;28;20533;-25
2022/06/16 04:26:38;;;;;;;2.47;2.20;;;;;;;27.27;40.16;97042.47;5117150;28;20023;-26
2022/06/16 04:29:06;;;;;;;1.88;1.75;;;;;;;27.22;40.75;97032.91;5117251;28;20046;-25
2022/06/16 04:31:32;;;;;;;3.17;2.10;;;;;;;27.23;40.69;97028.84;5117127;28;20360;-26
2022/06/16 04:33:57;;;;;;;2.03;1.83;;;;;;;27.21;40.49;97025.81;5116972;28;20119;-25
2022/06/16 04:36:23;;;;;;;3.97;2.17;;;;;;;27.21;40.59;97025.06;5117285;28;20027;-25
2022/06/16 04:38:50;;;;;;;2.15;1.52;;;;;;;27.19;40.52;97031.19;5116963;28;20027;-25
2022/06/16 04:41:17;;;;;;;4.97;2.42;;;;;;;27.21;40.55;97025.81;5116873;28;20047;-26
2022/06/16 04:43:42;;;;;;;3.05;1.85;;;;;;;27.20;40.83;97024.31;5102406;27;20027;-26
2022/06/16 04:46:08;;;;;;;4.03;2.10;;;;;;;27.17;40.85;97022.59;5125075;27;20107;-26
2022/06/16 04:48:35;;;;;;;2.38;2.00;;;;;;;27.17;40.87;97019.81;5133272;27;20023;-26
2022/06/16 04:51:03;;;;;;;4.63;2.25;;;;;;;27.24;40.74;97030.34;5099172;28;20026;-25
2022/06/16 04:53:30;;;;;;;3.60;1.90;;;;;;;27.21;40.32;97028.59;5114789;28;20103;-26
2022/06/16 04:55:59;;;;;;;5.13;2.00;;;;;;;27.16;40.46;97030.19;5114277;28;20503;-25
2022/06/16 04:58:26;;;;;;;2.67;1.90;;;;;;;27.20;40.50;97034.72;5114636;28;20035;-26
2022/06/16 05:00:53;;;;;;;3.60;1.85;;;;;;;27.20;41.00;97035.44;5114649;28;20080;-25
2022/06/16 05:03:21;;;;;;;2.10;1.90;;;;;;;27.19;40.75;97039.53;5132763;27;20078;-25
2022/06/16 05:05:47;;;;;;;4.43;2.53;;;;;;;27.17;40.57;97047.66;5135044;27;20436;-25
2022/06/16 05:08:15;;;;;;;2.05;1.88;;;;;;;27.15;40.55;97053.00;5134846;27;20030;-25
2022/06/16 05:10:40;;;;;;;3.53;2.15;;;;;;;27.24;40.52;97046.31;5134947;27;20146;-26
2022/06/16 05:13:06;;;;;;;2.53;1.80;;;;;;;27.22;40.83;97043.28;5126700;27;20514;-25
2022/06/16 05:15:32;;;;;;;4.13;2.15;;;;;;;27.20;40.82;97048.66;5114242;28;20102;-26
2022/06/16 05:17:58;;;;;;;3.60;1.92;;;;;;;27.19;41.02;97042.31;5114128;28;20157;-25
2022/06/16 05:20:23;;;;;;;5.05;2.10;;;;;;;27.16;40.54;97046.16;5113946;28;20023;-25
2022/06/16 05:22:49;;;;;;;5.45;2.03;;;;;;;27.15;40.86;97053.75;5114186;28;20027;-26
2022/06/16 05:25:15;;;;;;;2.30;1.90;;;;;;;27.14;40.78;97048.69;5114174;28;20482;-25
2022/06/16 05:27:40;;;;;;;3.40;1.80;;;;;;;27.18;41.09;97046.38;5113897;28;20039;-25
2022/06/16 05:30:07;;;;;;;3.97;2.13;;;;;;;27.20;41.11;97054.22;5112676;28;20129;-25
2022/06/16 05:32:33;;;;;;;8.57;2.22;;;;;;;27.21;41.00;97056.44;5113626;28;20379;-25
2022/06/16 05:34:59;;;;;;;2.17;1.90;;;;;;;27.22;41.12;97057.97;5112567;28;20042;-25
2022/06/16 05:37:24;;;;;;;6.13;2.30;;;;;;;27.22;41.05;97055.19;5113900;28;20743;-25
2022/06/16 05:39:50;;;;;;;4.93;2.25;;;;;;;27.14;41.18;97052.22;5095553;28;20404;-26
2022/06/16 05:42:17;;;;;;;6.20;2.40;;;;;;;27.16;41.32;97057.28;5093437;28;20392;-25
2022/06/16 05:44:44;;;;;;;3.80;2.10;;;;;;;27.15;41.32;97061.34;5091816;28;20048;-25
2022/06/16 05:47:10;;;;;;;3.55;2.00;;;;;;;27.17;41.38;97061.56;5093328;28;20031;-26
2022/06/16 05:49:39;;;;;;;4.80;2.50;;;;;;;27.16;41.37;97055.25;5090309;28;20024;-26
2022/06/16 05:52:09;;;;;;;5.03;2.10;;;;;;;27.20;41.29;97063.28;5093381;28;20016;-24
2022/06/16 05:54:35;;;;;;;4.10;1.80;;;;;;;27.21;40.83;97059.25;5093253;28;20020;-26
2022/06/16 05:57:01;;;;;;;4.40;2.22;;;;;;;27.13;41.53;97067.44;5093023;28;20034;-25
2022/06/16 05:59:26;;;;;;;3.65;1.92;;;;;;;27.12;41.47;97067.94;5092779;28;20024;-25
2022/06/16 06:01:52;;;;;;;3.13;2.00;;;;;;;27.14;41.13;97073.75;5092810;28;20032;-25
2022/06/16 06:04:18;;;;;;;3.13;2.10;;;;;;;27.17;41.16;97064.38;5092964;28;20028;-26
2022/06/16 06:06:46;;;;;;;3.13;2.17;;;;;;;27.10;41.28;97070.50;5092229;28;20056;-25
2022/06/16 06:17:27;;;;;;;3.20;1.90;;;;;;;27.08;42.01;97078.59;5092858;28;20522;-26
2022/06/16 06:19:53;;;;;;;4.80;2.03;;;;;;;27.07;41.85;97079.91;5092329;28;20028;-25
2022/06/16 06:22:24;;;;;;;2.63;1.83;;;;;;;27.11;41.90;97072.00;5092418;28;20102;-25
2022/06/16 06:24:54;;;;;;;2.75;1.85;;;;;;;27.06;41.81;97072.84;5092549;28;20035;-26
2022/06/16 06:27:37;;;;;;;3.53;1.90;;;;;;;27.09;41.65;97069.75;5092581;28;20466;-25
2022/06/16 06:30:09;;;;;;;3.63;2.10;;;;;;;27.12;41.49;97073.50;5092319;28;20020;-26
2022/06/16 06:32:35;;;;;;;4.53;2.00;;;;;;;27.14;41.48;97070.97;5092083;28;20032;-25
2022/06/16 06:35:00;;;;;;;4.70;2.00;;;;;;;27.14;41.53;97076.53;5092304;28;20389;-25
2022/06/16 06:37:27;;;;;;;3.35;2.00;;;;;;;27.14;41.48;97077.28;5090786;28;20036;-25
2022/06/16 06:39:53;;;;;;;3.90;2.15;;;;;;;27.19;41.28;97078.53;5110709;28;20383;-25
2022/06/16 06:42:19;;;;;;;6.30;2.35;;;;;;;27.17;41.22;97076.25;5112559;28;20023;-25
2022/06/16 06:44:47;;;;;;;3.65;2.20;;;;;;;27.22;41.86;97082.25;5112223;28;20032;-26
2022/06/16 06:47:27;;;;;;;2.28;1.90;;;;;;;27.15;41.61;97078.03;5112464;28;20038;-25
2022/06/16 06:49:53;;;;;;;2.60;1.95;;;;;;;27.15;41.81;97080.84;5111006;28;20023;-25
2022/06/16 06:52:19;;;;;;;3.38;1.77;;;;;;;27.20;41.30;97082.06;5112335;28;20472;-25
2022/06/16 06:54:45;;;;;;;2.67;1.92;;;;;;;27.12;41.65;97085.41;5112357;28;20042;-25
2022/06/16 06:57:14;;;;;;;3.67;2.10;;;;;;;27.12;41.80;97093.00;5112116;28;20468;-25
2022/06/16 06:59:41;;;;;;;3.85;2.30;;;;;;;27.03;42.40;97087.78;5112093;28;20428;-25
2022/06/16 07:02:09;;;;;;;6.13;2.30;;;;;;;27.10;41.88;97092.78;5112037;28;20107;-25
2022/06/16 07:04:35;;;;;;;2.88;1.98;;;;;;;27.16;42.07;97105.38;5112155;28;20039;-25
2022/06/16 07:07:00;;;;;;;3.33;2.15;;;;;;;27.17;41.82;97101.31;5112085;28;20038;-25
2022/06/16 07:09:26;;;;;;;4.30;2.20;;;;;;;27.12;42.16;97096.53;5112280;28;20464;-26
2022/06/16 07:11:52;;;;;;;2.50;2.15;;;;;;;27.09;42.25;97096.81;5111850;28;20043;-25
2022/06/16 07:14:17;;;;;;;4.30;2.10;;;;;;;27.08;41.97;97100.88;5112016;28;20039;-26
2022/06/16 07:16:44;;;;;;;4.25;2.30;;;;;;;27.18;41.61;97104.84;5112107;28;20400;-25
2022/06/16 07:19:09;;;;;;;4.25;2.22;;;;;;;27.09;42.17;97105.94;5110714;28;20038;-26
2022/06/16 07:21:35;;;;;;;4.22;2.33;;;;;;;27.10;41.76;97103.91;5111836;28;20028;-25
2022/06/16 07:24:00;;;;;;;4.75;2.10;;;;;;;27.06;42.16;97104.22;5111919;28;20068;-25
2022/06/16 07:26:26;;;;;;;6.07;2.22;;;;;;;27.10;42.22;97103.91;5111737;28;20031;-26
2022/06/16 07:28:52;;;;;;;2.30;2.10;;;;;;;27.12;42.51;97098.56;5111804;28;20464;-25
2022/06/16 07:31:18;;;;;;;4.65;2.20;;;;;;;27.09;42.31;97097.56;5111744;28;20024;-25
2022/06/16 07:33:43;;;;;;;3.35;2.40;;;;;;;27.04;43.01;97103.22;5111424;28;20023;-25
2022/06/16 07:36:10;;;;;;;4.85;2.35;;;;;;;27.05;42.88;97099.16;5111389;28;20025;-25
2022/06/16 07:38:36;;;;;;;3.55;2.22;;;;;;;27.03;42.88;97093.34;5111768;28;20023;-25
2022/06/16 07:43:48;;;;;;;7.65;2.25;;;;;;;26.97;42.55;97084.28;5110638;28;20035;-25
2022/06/16 07:46:15;;;;;;;3.08;2.17;;;;;;;26.99;42.80;97090.09;5111468;28;20030;-25
2022/06/16 07:48:40;;;;;;;6.03;2.00;;;;;;;26.88;42.88;97088.16;5110149;28;20023;-25
2022/06/16 07:51:06;;;;;;;2.75;2.22;;;;;;;26.89;42.81;97092.44;5111738;28;20015;-26
2022/06/16 07:53:32;;;;;;;5.60;2.40;;;;;;;27.01;42.43;97090.34;5111590;28;20023;-26
2022/06/16 07:55:58;;;;;;;15.35;3.03;;;;;;;26.13;44.01;97082.13;5111099;28;20771;-29
2022/06/16 07:58:29;;;;;;;18.10;3.72;;;;;;;26.59;43.16;97088.88;5111865;28;20029;-27
2022/06/16 08:00:56;;;;;;;10.30;3.08;;;;;;;26.74;42.73;97084.47;5111438;28;20102;-28
2022/06/16 08:03:27;;;;;;;12.50;3.67;;;;;;;26.95;41.92;97089.66;5110269;28;20456;-29
2022/06/16 08:05:54;;;;;;;13.15;3.22;;;;;;;27.06;41.96;97086.75;5111154;28;20503;-29
2022/06/16 08:08:24;;;;;;;5.55;2.45;;;;;;;26.89;42.05;97077.75;5111061;28;20035;-28
2022/06/16 08:10:51;;;;;;;6.60;2.80;;;;;;;26.99;41.62;97082.50;5111418;28;20023;-28
2022/06/16 08:13:16;;;;;;;7.03;2.80;;;;;;;26.98;42.15;97091.38;5111473;28;20050;-27
2022/06/16 08:15:45;;;;;;;8.18;2.80;;;;;;;27.00;41.69;97091.59;5111879;28;20462;-28
2022/06/16 08:18:17;;;;;;;4.70;2.42;;;;;;;26.91;42.13;97103.06;5113319;28;20073;-27
2022/06/16 08:20:44;;;;;;;3.67;2.10;;;;;;;26.80;41.88;97093.53;5113343;28;20098;-28
2022/06/16 08:23:10;;;;;;;6.55;2.85;;;;;;;26.90;42.00;97095.97;5113613;28;20429;-28
2022/06/16 08:25:36;;;;;;;5.05;2.50;;;;;;;26.94;41.72;97091.69;5113550;28;20032;-28
2022/06/16 08:28:03;;;;;;;5.38;2.50;;;;;;;27.07;41.56;97089.03;5113233;28;20480;-28
2022/06/16 08:30:29;;;;;;;5.50;2.50;;;;;;;27.09;41.01;97085.69;5115369;28;20432;-28
2022/06/16 08:32:55;;;;;;;3.92;2.47;;;;;;;27.08;41.29;97089.75;5116780;28;20490;-28
2022/06/16 08:35:22;;;;;;;4.75;2.33;;;;;;;27.01;41.30;97088.31;5116213;28;20020;-28
2022/06/16 08:37:48;;;;;;;5.28;2.47;;;;;;;27.11;41.44;97091.50;5117156;28;20412;-28
2022/06/16 08:40:15;;;;;;;6.25;2.33;;;;;;;27.08;40.91;97093.28;5115737;28;20043;-28
2022/06/16 08:42:53;;;;;;;3.17;2.20;;;;;;;27.07;40.84;97089.03;5116851;27;20529;-29
2022/06/16 08:45:32;;;;;;;5.15;1.90;;;;;;;27.08;41.29;97089.75;5116850;28;20030;-28
2022/06/16 08:48:13;;;;;;;8.93;2.40;;;;;;;27.09;40.84;97091.25;5116847;28;20068;-28
2022/06/16 08:50:52;;;;;;;5.80;2.67;;;;;;;27.03;41.02;97088.53;5116924;27;20027;-28
2022/06/16 08:53:36;;;;;;;4.53;2.30;;;;;;;27.10;40.89;97092.78;5116801;28;20019;-30
2022/06/16 08:56:06;;;;;;;9.35;2.65;;;;;;;27.08;40.91;97106.44;5117086;28;20019;-28
2022/06/16 08:58:59;;;;;;;3.40;2.40;;;;;;;27.06;40.49;97103.47;5116802;27;20034;-29
2022/06/16 09:01:28;;;;;;;;;;;;;;;27.06;41.01;97100.66;5117001;28;20026;-28
2022/06/16 09:04:32;;;;;;;4.60;2.25;;;;;;;27.02;41.40;97094.63;5116617;28;19998;-28
2022/06/16 09:07:04;;;;;;;4.63;2.20;;;;;;;27.06;40.64;97100.66;5116521;28;20034;-28
2022/06/16 09:12:25;;;;;;;3.67;2.25;;;;;;;27.05;40.78;97101.94;5116120;28;20072;-28
2022/06/16 09:15:23;;;;;;;6.68;2.30;;;;;;;27.04;41.11;97089.28;5116692;27;20035;-28
2022/06/16 09:18:17;;;;;;;5.25;2.55;;;;;;;27.08;40.74;97093.28;5112558;28;20031;-28
2022/06/16 09:21:25;;;;;;;3.65;2.05;;;;;;;27.08;40.33;97101.63;5116240;28;20023;-28
2022/06/16 09:24:09;;;;;;;2.80;2.22;;;;;;;27.02;40.36;97094.63;5116106;28;20028;-28
2022/06/16 09:26:56;;;;;;;5.85;2.53;;;;;;;27.09;40.53;97092.00;5116312;28;20028;-28
2022/06/16 09:29:31;;;;;;;5.05;2.10;;;;;;;27.06;40.16;97097.88;5115998;28;20015;-29
2022/06/16 09:32:06;;;;;;;6.35;2.17;;;;;;;27.09;40.41;97096.81;5114551;28;20039;-28
2022/06/16 09:34:41;;;;;;;3.47;2.03;;;;;;;27.10;40.51;97089.97;5115954;28;20375;-28
2022/06/16 09:37:16;;;;;;;3.67;2.15;;;;;;;27.10;40.18;97084.41;5116018;28;20015;-28
2022/06/16 09:39:57;;;;;;;4.35;2.13;;;;;;;26.99;40.31;97090.09;5113838;28;20495;-28
2022/06/16 09:42:35;;;;;;;3.33;1.98;;;;;;;27.00;40.63;97089.56;5114184;27;20019;-29
2022/06/16 09:45:07;;;;;;;4.05;2.05;;;;;;;27.04;39.98;97086.50;5115271;28;20431;-28
2022/06/16 09:47:42;;;;;;;4.07;2.50;;;;;;;27.08;39.79;97089.75;5116074;28;20023;-29
2022/06/16 09:50:56;;;;;;;5.32;2.20;;;;;;;27.06;39.94;97089.53;5115624;28;20256;-28
2022/06/16 09:53:40;;;;;;;4.72;2.08;;;;;;;27.04;39.96;97075.38;5115634;28;20022;-27
2022/06/16 09:56:12;;;;;;;4.75;2.08;;;;;;;27.07;39.61;97080.66;5115591;28;20024;-29
2022/06/16 09:58:57;;;;;;;3.97;1.80;;;;;;;27.11;39.44;97069.22;5115456;28;20028;-28
2022/06/16 10:01:25;;;;;;;6.18;2.17;;;;;;;27.08;39.16;97073.03;5115128;28;20016;-28
2022/06/16 10:04:00;;;;;;;7.07;2.67;;;;;;;27.03;39.74;97068.31;5115547;28;20043;-28
2022/06/16 10:06:54;;;;;;;4.22;2.00;;;;;;;27.05;39.01;97068.53;5115187;28;20019;-28
2022/06/16 10:09:51;;;;;;;4.95;2.25;;;;;;;27.06;38.42;97064.47;5109613;28;20529;-29
2022/06/16 10:12:46;;;;;;;4.38;2.00;;;;;;;27.12;38.10;97059.59;5092108;28;20111;-28
2022/06/16 10:15:20;;;;;;;3.38;2.25;;;;;;;27.14;37.99;97062.63;5113094;28;20030;-28
2022/06/16 10:17:48;;;;;;;2.60;1.80;;;;;;;27.14;37.10;97062.63;5111616;28;20114;-28
2022/06/16 10:20:19;;;;;;;2.00;1.80;;;;;;;27.10;37.19;97059.34;5111756;28;20027;-29
2022/06/16 10:22:50;;;;;;;2.45;1.83;;;;;;;27.09;37.27;97057.84;5112811;28;20372;-29
2022/06/16 10:25:31;;;;;;;3.35;1.90;;;;;;;27.08;36.64;97054.31;5094596;28;20033;-28
2022/06/16 10:28:23;;;;;;;2.72;1.77;;;;;;;27.13;35.96;97050.72;5112892;28;20062;-28
2022/06/16 10:30:49;;;;;;;1.88;1.70;;;;;;;27.21;35.84;97053.66;5074234;28;20031;-28
2022/06/16 10:33:15;;;;;;;3.83;1.92;;;;;;;27.15;35.73;97045.38;5093969;28;20021;-29
2022/06/16 10:35:49;;;;;;;4.10;2.38;;;;;;;27.24;36.18;97044.28;5112830;28;20091;-28
2022/06/16 10:38:28;;;;;;;4.57;1.80;;;;;;;27.15;36.03;97055.78;5112641;28;20035;-28
2022/06/16 10:40:54;;;;;;;2.28;1.58;;;;;;;27.11;36.10;97049.72;5112333;28;20023;-28
2022/06/16 10:43:20;;;;;;;4.22;1.80;;;;;;;27.15;35.30;97045.38;5094338;28;20031;-28
2022/06/16 10:45:59;;;;;;;2.90;2.00;;;;;;;27.24;35.15;97046.31;5110717;28;20015;-28
2022/06/16 10:48:35;;;;;;;2.70;1.60;;;;;;;27.25;34.98;97045.03;5112477;28;20038;-28
2022/06/16 10:51:03;;;;;;;4.53;2.13;;;;;;;27.25;35.24;97045.78;5112466;28;20073;-28
2022/06/16 10:53:45;;;;;;;2.63;1.67;;;;;;;27.24;35.20;97051.88;5112061;28;20020;-28
2022/06/16 10:56:37;;;;;;;4.15;2.00;;;;;;;27.24;35.30;97041.50;5112175;28;20034;-28
2022/06/16 10:59:27;;;;;;;3.15;1.60;;;;;;;27.16;35.90;97032.97;5112021;28;20035;-29
2022/06/16 11:02:20;;;;;;;3.60;1.52;;;;;;;27.18;35.62;97035.25;5112152;28;20027;-28
2022/06/16 11:04:51;;;;;;;4.07;1.70;;;;;;;27.16;36.05;97046.16;5112200;28;20077;-29
2022/06/16 11:07:21;;;;;;;5.50;2.40;;;;;;;27.16;35.61;97032.97;5112175;28;20031;-29
2022/06/16 11:09:48;;;;;;;3.72;2.10;;;;;;;27.11;36.23;97033.78;5093564;28;20500;-28
2022/06/16 11:12:17;;;;;;;3.70;2.00;;;;;;;27.19;35.56;97033.97;5111656;28;20035;-28
2022/06/16 11:14:49;;;;;;;2.85;1.65;;;;;;;27.26;35.54;97038.94;5112094;28;20023;-28
2022/06/16 11:17:31;;;;;;;4.30;1.80;;;;;;;27.05;36.18;97040.69;5112148;28;20035;-29
2022/06/16 11:20:18;;;;;;;2.92;2.03;;;;;;;27.12;36.18;97045.69;5112046;28;20065;-28
2022/06/16 11:22:47;;;;;;;2.75;1.90;;;;;;;27.19;35.94;97036.75;5111667;28;20031;-28
2022/06/16 11:25:30;;;;;;;3.50;1.85;;;;;;;27.18;36.26;97040.81;5112005;28;20555;-28
2022/06/16 11:28:12;;;;;;;4.07;1.98;;;;;;;27.22;36.35;97041.25;5111519;28;20111;-28
2022/06/16 11:30:49;;;;;;;4.05;2.13;;;;;;;27.21;36.32;97036.97;5111836;28;20475;-28
2022/06/16 11:36:23;;;;;;;5.05;2.25;;;;;;;27.22;36.73;97035.69;5111944;28;20123;-29
2022/06/16 11:38:59;;;;;;;3.85;2.08;;;;;;;27.21;36.37;97033.41;5111734;28;20136;-29
2022/06/16 11:41:27;;;;;;;4.88;2.20;;;;;;;27.24;36.54;97026.81;5093368;28;20050;-27
2022/06/16 11:44:03;;;;;;;4.10;2.13;;;;;;;27.26;36.96;97027.03;5111495;28;20477;-28
2022/06/16 11:46:41;;;;;;;3.30;2.22;;;;;;;27.23;36.60;97028.84;5111290;28;20032;-28
2022/06/16 11:49:33;;;;;;;4.47;2.30;;;;;;;27.14;37.29;97029.22;5111653;28;20456;-28
2022/06/16 11:52:19;;;;;;;5.63;2.40;;;;;;;27.30;36.51;97028.28;5111643;28;20038;-27
2022/06/16 11:55:15;;;;;;;3.90;2.50;;;;;;;27.27;36.70;97023.75;5111593;28;20030;-29
2022/06/16 11:58:22;;;;;;;5.47;2.03;;;;;;;27.16;37.04;97035.00;5110817;28;20556;-28
2022/06/16 12:01:02;;;;;;;6.63;2.40;;;;;;;27.01;37.53;97037.44;5123908;27;20045;-28
2022/06/16 12:03:47;;;;;;;4.72;2.17;;;;;;;27.19;37.53;97028.41;5133880;27;20027;-30
2022/06/16 12:06:28;;;;;;;3.80;2.20;;;;;;;26.98;38.10;97035.69;5136536;27;20469;-28
2022/06/16 12:09:12;;;;;;;3.67;2.17;;;;;;;27.24;37.37;97024.78;5138217;27;20019;-27
2022/06/16 12:12:17;;;;;;;4.80;2.00;;;;;;;27.23;37.34;97026.06;5138231;27;20071;-28
2022/06/16 12:14:57;;;;;;;7.30;2.33;;;;;;;27.15;37.84;97022.34;5046098;28;20046;-30
2022/06/16 12:18:08;;;;;;;3.55;2.08;;;;;;;27.27;37.49;97026.53;5096805;28;20457;-29
2022/06/16 12:21:10;;;;;;;4.13;2.50;;;;;;;27.18;37.61;97015.75;5072065;28;20107;-29
2022/06/16 12:24:01;;;;;;;3.08;2.40;;;;;;;27.15;38.04;97027.94;5096967;28;20023;-29